createdAt,value
2023-02-13T00:01:30.156Z,17.90
2023-02-13T00:04:13.042Z,19.10
2023-02-13T00:06:55.924Z,22.10
2023-02-13T00:09:39.068Z,18.10
2023-02-13T00:12:21.880Z,19.60
2023-02-13T00:15:05.565Z,18.70
2023-02-13T00:17:48.410Z,24.20
2023-02-13T00:20:31.295Z,21.60
2023-02-13T00:23:14.198Z,18.90
2023-02-13T00:25:58.233Z,20.20
2023-02-13T00:28:41.217Z,20.40
2023-02-13T00:31:24.261Z,17.30
2023-02-13T00:34:09.641Z,19.80
2023-02-13T00:36:52.473Z,15.00
2023-02-13T00:39:35.370Z,16.30
2023-02-13T00:42:18.348Z,17.50
2023-02-13T00:45:01.178Z,15.00
2023-02-13T00:47:46.056Z,18.10
2023-02-13T00:50:29.780Z,19.60
2023-02-13T00:53:13.965Z,15.00
2023-02-13T00:55:57.239Z,17.60
2023-02-13T00:58:40.191Z,20.60
2023-02-13T01:01:23.044Z,17.90
2023-02-13T01:04:06.001Z,15.90
2023-02-13T01:09:31.731Z,18.40
2023-02-13T01:12:14.577Z,15.40
2023-02-13T01:14:58.387Z,17.20
2023-02-13T01:17:41.424Z,20.40
2023-02-13T01:20:25.296Z,11.70
2023-02-13T01:23:08.250Z,18.60
2023-02-13T01:25:51.873Z,14.40
2023-02-13T01:28:35.630Z,15.80
2023-02-13T01:31:18.662Z,16.10
2023-02-13T01:34:01.843Z,20.60
2023-02-13T01:36:44.763Z,19.80
2023-02-13T01:39:27.626Z,22.00
2023-02-13T01:42:17.032Z,21.30
2023-02-13T01:45:02.873Z,23.10
2023-02-13T01:47:50.879Z,24.10
2023-02-13T01:50:49.381Z,22.70
2023-02-13T01:53:38.132Z,28.50
2023-02-13T01:56:27.914Z,29.10
2023-02-13T01:59:17.183Z,24.80
2023-02-13T02:02:01.431Z,31.90
2023-02-13T02:04:47.336Z,23.40
2023-02-13T02:07:33.590Z,22.70
2023-02-13T02:10:20.886Z,26.30
2023-02-13T02:13:10.467Z,35.80
2023-02-13T02:15:55.851Z,26.10
2023-02-13T02:18:40.785Z,31.80
2023-02-13T02:21:27.474Z,30.10
2023-02-13T02:24:54.765Z,31.10
2023-02-13T02:28:14.737Z,35.30
2023-02-13T02:31:54.399Z,32.90
2023-02-13T02:35:20.644Z,32.10
2023-02-13T02:38:20.794Z,29.60
2023-02-13T02:41:43.315Z,30.90
2023-02-13T02:47:57.949Z,31.10
2023-02-13T02:50:54.673Z,30.20
2023-02-13T02:54:43.896Z,32.70
2023-02-13T02:57:52.040Z,25.60
2023-02-13T03:01:00.645Z,28.80
2023-02-13T03:04:04.655Z,33.20
2023-02-13T03:07:01.938Z,30.40
2023-02-13T03:10:20.363Z,29.50
2023-02-13T03:13:23.352Z,25.70
2023-02-13T03:19:52.024Z,25.00
2023-02-13T03:22:44.525Z,28.40
2023-02-13T03:25:39.306Z,28.20
2023-02-13T03:28:48.606Z,35.00
2023-02-13T03:31:55.378Z,27.70
2023-02-13T03:35:06.197Z,31.80
2023-02-13T03:37:57.408Z,29.90
2023-02-13T03:41:15.636Z,30.00
2023-02-13T03:44:19.624Z,33.60
2023-02-13T03:47:06.764Z,29.50
2023-02-13T03:50:08.196Z,28.30
2023-02-13T03:53:07.246Z,29.40
2023-02-13T03:56:11.753Z,26.90
2023-02-13T03:59:16.896Z,21.40
2023-02-13T04:02:08.671Z,22.80
2023-02-13T04:05:04.714Z,27.70
2023-02-13T04:07:48.609Z,25.00
2023-02-13T04:10:37.339Z,22.30
2023-02-13T04:13:36.629Z,23.70
2023-02-13T04:16:33.425Z,24.20
2023-02-13T04:19:17.364Z,19.50
2023-02-13T04:22:03.233Z,18.00
2023-02-13T04:24:46.736Z,18.70
2023-02-13T04:27:30.114Z,19.00
2023-02-13T04:30:14.455Z,15.70
2023-02-13T04:32:58.126Z,17.60
2023-02-13T04:35:41.223Z,18.30
2023-02-13T04:38:24.504Z,17.40
2023-02-13T04:41:07.577Z,14.40
2023-02-13T04:43:52.583Z,17.30
2023-02-13T04:46:35.863Z,18.20
2023-02-13T04:49:19.376Z,15.70
2023-02-13T04:52:02.792Z,17.30
2023-02-13T04:54:46.227Z,15.40
2023-02-13T04:57:29.347Z,15.30
2023-02-13T05:00:13.219Z,18.10
2023-02-13T05:03:09.619Z,20.40
2023-02-13T05:05:53.135Z,17.90
2023-02-13T05:08:37.416Z,21.70
2023-02-13T05:11:21.244Z,21.00
2023-02-13T05:14:04.553Z,20.40
2023-02-13T05:16:50.407Z,20.40
2023-02-13T05:19:33.991Z,20.90
2023-02-13T05:22:35.832Z,22.00
2023-02-13T05:25:18.882Z,22.00
2023-02-13T05:28:02.376Z,22.50
2023-02-13T05:30:45.934Z,21.30
2023-02-13T05:33:29.146Z,23.70
2023-02-13T05:36:12.289Z,21.30
2023-02-13T05:38:56.548Z,23.60
2023-02-13T05:41:39.583Z,24.40
2023-02-13T05:44:24.054Z,25.80
2023-02-13T05:47:07.162Z,23.60
2023-02-13T05:49:50.370Z,24.30
2023-02-13T05:52:33.985Z,25.10
2023-02-13T05:55:18.108Z,26.10
2023-02-13T05:58:01.642Z,24.40
2023-02-13T06:00:45.161Z,24.80
2023-02-13T06:03:30.229Z,24.80
2023-02-13T06:06:14.151Z,25.10
2023-02-13T06:08:57.475Z,25.50
2023-02-13T06:11:40.822Z,23.30
2023-02-13T06:14:24.010Z,28.80
2023-02-13T06:17:07.100Z,24.80
2023-02-13T06:19:50.881Z,26.10
2023-02-13T06:22:34.185Z,25.80
2023-02-13T06:25:18.020Z,25.80
2023-02-13T06:28:01.796Z,23.80
2023-02-13T06:30:45.259Z,26.60
2023-02-13T06:33:28.624Z,22.90
2023-02-13T06:36:14.200Z,26.10
2023-02-13T06:38:57.614Z,27.80
2023-02-13T06:41:40.985Z,24.00
2023-02-13T06:44:25.486Z,26.80
2023-02-13T06:47:09.941Z,25.50
2023-02-13T06:49:53.448Z,23.30
2023-02-13T06:52:37.283Z,25.60
2023-02-13T06:55:26.802Z,25.90
2023-02-13T06:58:10.124Z,28.30
2023-02-13T07:00:54.575Z,26.60
2023-02-13T07:03:38.011Z,26.70
2023-02-13T07:06:21.799Z,23.00
2023-02-13T07:09:05.857Z,23.40
2023-02-13T07:11:53.014Z,26.20
2023-02-13T07:14:37.046Z,27.00
2023-02-13T07:17:21.934Z,23.60
2023-02-13T07:20:07.006Z,27.60
2023-02-13T07:22:52.848Z,22.60
2023-02-13T07:25:36.366Z,26.20
2023-02-13T07:28:21.925Z,23.50
2023-02-13T07:31:07.254Z,23.20
2023-02-13T07:33:50.810Z,22.10
2023-02-13T07:36:34.753Z,20.50
2023-02-13T07:39:18.372Z,20.60
2023-02-13T07:42:01.897Z,26.60
2023-02-13T07:44:45.456Z,23.00
2023-02-13T07:47:32.128Z,23.80
2023-02-13T07:50:16.013Z,19.50
2023-02-13T07:53:01.558Z,23.40
2023-02-13T07:55:48.569Z,18.90
2023-02-13T07:58:32.568Z,19.50
2023-02-13T08:01:17.768Z,18.30
2023-02-13T08:04:03.920Z,17.90
2023-02-13T08:06:47.942Z,19.80
2023-02-13T08:09:50.076Z,18.60
2023-02-13T08:12:38.728Z,18.80
2023-02-13T08:15:22.399Z,18.40
2023-02-13T08:18:05.892Z,20.30
2023-02-13T08:20:51.239Z,18.00
2023-02-13T08:23:34.832Z,16.80
2023-02-13T08:26:19.858Z,20.00
2023-02-13T08:29:04.902Z,17.30
2023-02-13T08:31:52.079Z,19.00
2023-02-13T08:34:35.616Z,21.20
2023-02-13T08:37:19.121Z,19.10
2023-02-13T08:40:03.919Z,22.60
2023-02-13T08:42:49.892Z,17.00
2023-02-13T08:45:34.522Z,18.40
2023-02-13T08:48:18.729Z,16.80
2023-02-13T08:51:10.992Z,15.50
2023-02-13T08:53:55.041Z,13.20
2023-02-13T08:56:39.754Z,16.30
2023-02-13T08:59:24.699Z,12.90
2023-02-13T09:02:14.918Z,16.10
2023-02-13T09:04:58.903Z,13.60
2023-02-13T09:07:43.605Z,19.20
2023-02-13T09:10:27.612Z,17.70
2023-02-13T09:13:14.506Z,17.70
2023-02-13T09:16:06.157Z,15.60
2023-02-13T09:18:51.309Z,15.70
2023-02-13T09:21:37.479Z,17.90
2023-02-13T09:24:21.433Z,15.80
2023-02-13T09:27:05.699Z,16.90
2023-02-13T09:29:49.198Z,14.00
2023-02-13T09:32:34.373Z,13.50
2023-02-13T09:35:25.112Z,17.10
2023-02-13T09:38:09.043Z,18.10
2023-02-13T09:41:07.379Z,17.00
2023-02-13T09:44:34.467Z,15.00
2023-02-13T09:47:32.826Z,16.60
2023-02-13T09:50:29.150Z,10.70
2023-02-13T09:53:23.523Z,14.60
2023-02-13T09:56:47.126Z,12.90
2023-02-13T09:59:43.021Z,13.00
2023-02-13T10:02:49.477Z,11.70
2023-02-13T10:06:06.037Z,14.90
2023-02-13T10:09:10.451Z,13.80
2023-02-13T10:12:36.398Z,13.10
2023-02-13T10:15:50.860Z,17.70
2023-02-13T10:18:45.609Z,14.10
2023-02-13T10:21:37.210Z,16.50
2023-02-13T10:24:39.142Z,16.60
2023-02-13T10:27:32.518Z,21.40
2023-02-13T10:30:19.877Z,18.60
2023-02-13T10:33:21.873Z,19.20
2023-02-13T10:36:15.891Z,17.60
2023-02-13T10:39:08.902Z,17.60
2023-02-13T10:42:07.524Z,14.50
2023-02-13T10:45:24.005Z,15.80
2023-02-13T10:48:19.655Z,14.80
2023-02-13T10:51:26.817Z,17.30
2023-02-13T10:54:48.604Z,19.70
2023-02-13T10:57:54.148Z,15.80
2023-02-13T11:00:56.494Z,15.80
2023-02-13T11:03:47.296Z,18.40
2023-02-13T11:06:38.049Z,15.20
2023-02-13T11:09:27.450Z,16.40
2023-02-13T11:12:29.564Z,16.40
2023-02-13T11:15:32.754Z,13.20
2023-02-13T11:18:24.196Z,11.40
2023-02-13T11:21:24.576Z,15.00
2023-02-13T11:24:21.250Z,17.70
2023-02-13T11:27:14.201Z,14.50
2023-02-13T11:30:26.229Z,16.40
2023-02-13T11:33:27.228Z,14.00
2023-02-13T11:36:17.051Z,13.30
2023-02-13T11:39:18.885Z,14.50
2023-02-13T11:42:02.585Z,20.40
2023-02-13T11:44:52.082Z,16.00
2023-02-13T11:47:42.242Z,12.20
2023-02-13T11:50:38.963Z,15.50
2023-02-13T11:53:28.748Z,12.40
2023-02-13T11:56:17.346Z,12.30
2023-02-13T11:59:03.755Z,13.40
2023-02-13T12:01:53.770Z,15.10
2023-02-13T12:04:37.443Z,14.80
2023-02-13T12:07:36.491Z,14.20
2023-02-13T12:10:25.468Z,16.10
2023-02-13T12:13:33.362Z,20.60
2023-02-13T12:16:41.605Z,19.30
2023-02-13T12:19:49.977Z,12.30
2023-02-13T12:23:00.808Z,16.20
2023-02-13T12:25:54.203Z,13.40
2023-02-13T12:28:53.108Z,15.70
2023-02-13T12:31:42.400Z,12.70
2023-02-13T12:34:44.506Z,13.90
2023-02-13T12:38:23.000Z,12.70
2023-02-13T12:41:44.022Z,13.80
2023-02-13T12:45:06.804Z,16.80
2023-02-13T12:48:24.559Z,46.70
2023-02-13T12:51:21.394Z,33.30
2023-02-13T12:54:29.428Z,17.60
2023-02-13T12:57:22.145Z,16.50
2023-02-13T13:00:21.774Z,13.20
2023-02-13T13:03:41.122Z,11.80
2023-02-13T13:06:31.591Z,13.10
2023-02-13T13:09:47.875Z,13.80
2023-02-13T13:12:41.329Z,11.30
2023-02-13T13:15:24.786Z,11.90
2023-02-13T13:18:14.751Z,15.50
2023-02-13T13:21:25.852Z,13.50
2023-02-13T13:24:35.214Z,14.40
2023-02-13T13:27:33.510Z,21.70
2023-02-13T13:30:25.790Z,23.50
2023-02-13T13:33:26.786Z,17.50
2023-02-13T13:36:31.274Z,14.20
2023-02-13T13:39:39.131Z,13.60
2023-02-13T13:42:33.124Z,14.90
2023-02-13T13:45:23.445Z,20.20
2023-02-13T13:48:34.411Z,22.20
2023-02-13T13:51:20.485Z,32.00
2023-02-13T13:54:08.039Z,24.10
2023-02-13T13:57:11.937Z,17.50
2023-02-13T14:00:09.575Z,15.00
2023-02-13T14:03:23.085Z,14.30
2023-02-13T14:06:12.657Z,13.30
2023-02-13T14:09:00.609Z,16.30
2023-02-13T14:11:47.344Z,19.40
2023-02-13T14:14:31.735Z,21.50
2023-02-13T14:17:20.808Z,15.00
2023-02-13T14:20:40.538Z,16.80
2023-02-13T14:23:42.851Z,16.10
2023-02-13T14:26:34.468Z,13.80
2023-02-13T14:29:34.024Z,14.60
2023-02-13T14:32:29.103Z,14.10
2023-02-13T14:35:30.990Z,14.40
2023-02-13T14:38:27.159Z,15.40
2023-02-13T14:41:59.292Z,15.40
2023-02-13T14:44:52.491Z,13.90
2023-02-13T14:47:46.119Z,14.70
2023-02-13T14:50:40.836Z,15.80
2023-02-13T14:53:32.735Z,19.90
2023-02-13T14:56:27.199Z,19.60
2023-02-13T14:59:19.529Z,18.20
2023-02-13T15:02:17.341Z,15.50
2023-02-13T15:05:21.229Z,19.80
2023-02-13T15:08:21.664Z,14.90
2023-02-13T15:11:26.423Z,16.40
2023-02-13T15:14:37.332Z,30.00
2023-02-13T15:17:29.443Z,23.10
2023-02-13T15:20:13.453Z,17.20
2023-02-13T15:22:57.723Z,21.00
2023-02-13T15:25:41.447Z,18.40
2023-02-13T15:28:29.119Z,15.90
2023-02-13T15:31:28.749Z,19.50
2023-02-13T15:34:26.900Z,16.70
2023-02-13T15:37:21.787Z,22.10
2023-02-13T15:40:26.589Z,17.20
2023-02-13T15:43:23.789Z,18.60
2023-02-13T15:46:26.285Z,16.80
2023-02-13T15:49:17.747Z,15.10
2023-02-13T15:52:09.612Z,21.20
2023-02-13T15:54:56.457Z,18.00
2023-02-13T15:57:41.546Z,18.90
2023-02-13T16:00:29.775Z,19.90
2023-02-13T16:03:18.025Z,20.70
2023-02-13T16:06:07.277Z,21.30
2023-02-13T16:09:09.909Z,18.70
2023-02-13T16:12:02.046Z,25.00
2023-02-13T16:15:03.290Z,16.40
2023-02-13T16:17:48.660Z,18.40
2023-02-13T16:20:34.617Z,15.60
2023-02-13T16:23:22.034Z,20.40
2023-02-13T16:26:13.224Z,20.20
2023-02-13T16:28:58.051Z,16.10
2023-02-13T16:31:43.847Z,15.70
2023-02-13T16:34:30.397Z,15.40
2023-02-13T16:37:32.822Z,15.80
2023-02-13T16:40:40.222Z,17.80
2023-02-13T16:43:42.985Z,15.30
2023-02-13T16:46:44.122Z,17.00
2023-02-13T16:49:34.037Z,21.30
2023-02-13T16:52:29.242Z,22.10
2023-02-13T16:55:22.364Z,39.80
2023-02-13T16:58:07.549Z,24.40
2023-02-13T17:00:51.487Z,20.30
2023-02-13T17:03:36.320Z,24.60
2023-02-13T17:06:21.380Z,22.20
2023-02-13T17:09:04.906Z,22.50
2023-02-13T17:11:51.891Z,23.60
2023-02-13T17:14:35.346Z,18.90
2023-02-13T17:17:21.944Z,21.70
2023-02-13T17:20:05.954Z,22.70
2023-02-13T17:22:51.963Z,26.50
2023-02-13T17:25:38.185Z,21.40
2023-02-13T17:28:25.022Z,25.00
2023-02-13T17:31:12.320Z,20.30
2023-02-13T17:33:56.300Z,22.90
2023-02-13T17:36:40.049Z,20.30
2023-02-13T17:39:23.171Z,23.30
2023-02-13T17:42:06.471Z,18.90
2023-02-13T17:44:50.118Z,21.30
2023-02-13T17:47:33.213Z,15.70
2023-02-13T17:50:17.652Z,18.30
2023-02-13T17:53:07.243Z,19.50
2023-02-13T17:55:53.154Z,20.00
2023-02-13T17:58:37.917Z,20.60
2023-02-13T18:01:22.517Z,20.30
2023-02-13T18:04:06.398Z,18.90
2023-02-13T18:06:54.941Z,17.20
2023-02-13T18:09:40.684Z,15.70
2023-02-13T18:12:25.275Z,18.50
2023-02-13T18:15:09.744Z,18.20
2023-02-13T18:17:54.068Z,19.50
2023-02-13T18:20:40.222Z,22.70
2023-02-13T18:23:25.647Z,26.00
2023-02-13T18:26:10.775Z,19.40
2023-02-13T18:28:54.664Z,28.60
2023-02-13T18:31:38.687Z,19.30
2023-02-13T18:34:23.498Z,19.70
2023-02-13T18:37:07.691Z,18.50
2023-02-13T18:39:51.194Z,21.80
2023-02-13T18:42:36.902Z,21.20
2023-02-13T18:45:24.595Z,18.70
2023-02-13T18:48:09.530Z,25.60
2023-02-13T18:50:54.010Z,24.10
2023-02-13T18:53:37.376Z,17.70
2023-02-13T18:56:23.106Z,19.40
2023-02-13T18:59:07.144Z,20.20
2023-02-13T19:01:51.219Z,18.10
2023-02-13T19:04:35.941Z,20.70
2023-02-13T19:07:19.883Z,19.30
2023-02-13T19:10:04.005Z,17.70
2023-02-13T19:12:47.315Z,20.60
2023-02-13T19:15:30.732Z,16.70
2023-02-13T19:18:13.843Z,18.30
2023-02-13T19:21:01.117Z,20.00
2023-02-13T19:23:45.751Z,18.10
2023-02-13T19:26:29.547Z,19.10
2023-02-13T19:29:13.035Z,17.40
2023-02-13T19:31:56.201Z,14.80
2023-02-13T19:34:41.762Z,16.50
2023-02-13T19:37:26.770Z,12.00
2023-02-13T19:40:13.700Z,13.00
2023-02-13T19:42:57.138Z,13.80
2023-02-13T19:45:40.927Z,13.50
2023-02-13T19:48:24.564Z,13.60
2023-02-13T19:51:09.980Z,14.20
2023-02-13T19:54:02.263Z,13.90
2023-02-13T19:56:45.474Z,9.90
2023-02-13T19:59:29.106Z,12.40
2023-02-13T20:02:14.538Z,17.70
2023-02-13T20:04:57.527Z,12.70
2023-02-13T20:07:41.613Z,13.50
2023-02-13T20:10:24.773Z,14.40
2023-02-13T20:13:08.077Z,15.60
2023-02-13T20:15:51.126Z,10.50
2023-02-13T20:18:36.383Z,14.10
2023-02-13T20:21:26.805Z,13.90
2023-02-13T20:24:12.614Z,11.20
2023-02-13T20:26:58.976Z,12.90
2023-02-13T20:29:42.223Z,13.80
2023-02-13T20:32:25.336Z,15.30
2023-02-13T20:35:09.032Z,15.30
2023-02-13T20:37:52.311Z,10.90
2023-02-13T20:40:35.826Z,29.10
2023-02-13T20:43:21.191Z,40.40
2023-02-13T20:46:06.331Z,35.30
2023-02-13T20:48:50.226Z,18.20
2023-02-13T20:51:33.618Z,22.30
2023-02-13T20:54:17.210Z,16.30
2023-02-13T20:57:02.242Z,17.70
2023-02-13T20:59:45.581Z,16.80
2023-02-13T21:02:29.227Z,18.20
2023-02-13T21:05:13.199Z,17.80
2023-02-13T21:07:57.654Z,20.00
2023-02-13T21:10:41.192Z,20.60
2023-02-13T21:13:24.166Z,22.80
2023-02-13T21:16:15.173Z,22.20
2023-02-13T21:19:00.297Z,19.20
2023-02-13T21:21:44.423Z,15.30
2023-02-13T21:24:28.632Z,18.60
2023-02-13T21:27:11.836Z,24.80
2023-02-13T21:29:56.093Z,18.40
2023-02-13T21:32:42.382Z,22.20
2023-02-13T21:35:25.697Z,17.10
2023-02-13T21:38:09.118Z,21.50
2023-02-13T21:40:52.729Z,20.90
2023-02-13T21:43:37.842Z,15.30
2023-02-13T21:46:23.695Z,16.20
2023-02-13T21:49:08.971Z,15.70
2023-02-13T21:51:52.688Z,18.60
2023-02-13T21:54:35.800Z,20.20
2023-02-13T21:57:19.017Z,17.70
2023-02-13T22:00:04.175Z,19.00
2023-02-13T22:03:07.424Z,16.10
2023-02-13T22:05:50.592Z,19.40
2023-02-13T22:08:34.356Z,20.40
2023-02-13T22:11:19.172Z,23.40
2023-02-13T22:14:05.432Z,17.70
2023-02-13T22:16:51.740Z,21.90
2023-02-13T22:19:34.939Z,20.20
2023-02-13T22:22:18.039Z,19.70
2023-02-13T22:25:01.814Z,19.80
2023-02-13T22:27:48.417Z,21.50
2023-02-13T22:30:36.400Z,20.80
2023-02-13T22:33:19.709Z,19.50
2023-02-13T22:36:04.861Z,20.40
2023-02-13T22:38:50.067Z,20.70
2023-02-13T22:41:33.396Z,24.40
2023-02-13T22:44:16.537Z,20.10
2023-02-13T22:47:00.157Z,19.80
2023-02-13T22:49:43.973Z,20.50
2023-02-13T22:52:26.990Z,22.90
2023-02-13T22:55:10.888Z,22.70
2023-02-13T22:57:54.583Z,22.10
2023-02-13T23:00:37.782Z,23.60
2023-02-13T23:03:22.935Z,21.10
2023-02-13T23:06:09.580Z,24.00
2023-02-13T23:08:53.686Z,21.10
2023-02-13T23:11:56.214Z,19.70
2023-02-13T23:14:39.396Z,22.80
2023-02-13T23:17:43.250Z,22.60
2023-02-13T23:20:27.401Z,22.30
2023-02-13T23:23:11.406Z,19.40
2023-02-13T23:25:54.898Z,20.10
2023-02-13T23:28:38.097Z,18.40
2023-02-13T23:31:21.617Z,20.40
2023-02-13T23:34:04.990Z,17.80
2023-02-13T23:36:48.712Z,22.50
2023-02-13T23:39:31.797Z,20.20
2023-02-13T23:42:15.578Z,19.50
2023-02-13T23:44:58.962Z,20.90
2023-02-13T23:47:41.929Z,17.70
2023-02-13T23:50:25.517Z,19.90
2023-02-13T23:53:08.541Z,21.60
2023-02-13T23:55:51.637Z,17.10
2023-02-13T23:58:35.063Z,20.50
